KMRY

Monterey Regional Airport

Monterey, California, USA
METAR KMRY 141254Z AUTO VRB03KT 10SM CLR 10/04 A3007 RMK AO2 SLP195 T01000039
Observed Flight Rules
Dec-14 @ 12:54 UTC (29 minutes ago) Visual Flight Rules
Wind Visibility Clouds
Variable at 3 knots 10 miles
  • Clear skies
Temperatures Readings
Current 10°C / 50°F
Dewpoint 4°C / 39°F
Humidity 67%
Altimeter 30.07" Hg
Pressure 1019.5 hPa
Elevation 66
METAR KMRY 141254Z AUTO VRB03KT 10SM CLR 10/04 A3007 RMK AO2 SLP195 T01000039
Observed Flight Rules
Dec-14 @ 12:54 UTC
(29 minutes ago)
VFR
Wind Visibility
Variable at 3 knots 10 miles
Clouds
  • Clear skies
Temperature Dewpoint
10°C / 50°F 4°C / 39°F
Humidity Altimeter Pressure
67% 30.07" Hg 1019.5 hPa